sensor_id;sensor_type;location;lat;lon;timestamp;temperature;humidity
35085;SHT85;21267;51.032;6.998;2022-12-28T00:03:43;5.89;84.16
35085;SHT85;21267;51.032;6.998;2022-12-28T00:06:55;5.83;84.45
35085;SHT85;21267;51.032;6.998;2022-12-28T00:10:01;5.89;84.30
35085;SHT85;21267;51.032;6.998;2022-12-28T00:17:20;5.97;84.35
35085;SHT85;21267;51.032;6.998;2022-12-28T00:22:51;6.01;84.37
35085;SHT85;21267;51.032;6.998;2022-12-28T00:37:20;6.18;84.37
35085;SHT85;21267;51.032;6.998;2022-12-28T00:40:59;6.04;85.60
35085;SHT85;21267;51.032;6.998;2022-12-28T00:44:45;5.95;86.39
35085;SHT85;21267;51.032;6.998;2022-12-28T00:51:23;5.84;87.51
35085;SHT85;21267;51.032;6.998;2022-12-28T01:13:44;6.15;86.86
35085;SHT85;21267;51.032;6.998;2022-12-28T01:23:15;6.01;88.08
35085;SHT85;21267;51.032;6.998;2022-12-28T01:26:00;5.89;88.95
35085;SHT85;21267;51.032;6.998;2022-12-28T01:36:39;5.78;90.38
35085;SHT85;21267;51.032;6.998;2022-12-28T01:39:18;5.71;90.78
35085;SHT85;21267;51.032;6.998;2022-12-28T01:53:34;5.98;90.06
35085;SHT85;21267;51.032;6.998;2022-12-28T03:00:25;6.96;87.81
35085;SHT85;21267;51.032;6.998;2022-12-28T03:22:12;7.10;87.76
35085;SHT85;21267;51.032;6.998;2022-12-28T03:59:31;7.28;87.40
35085;SHT85;21267;51.032;6.998;2022-12-28T04:02:46;7.36;87.19
35085;SHT85;21267;51.032;6.998;2022-12-28T04:05:32;7.40;87.16
35085;SHT85;21267;51.032;6.998;2022-12-28T04:11:48;7.44;87.24
35085;SHT85;21267;51.032;6.998;2022-12-28T04:14:50;7.48;86.98
35085;SHT85;21267;51.032;6.998;2022-12-28T04:17:45;7.47;87.03
35085;SHT85;21267;51.032;6.998;2022-12-28T04:27:47;7.51;87.17
35085;SHT85;21267;51.032;6.998;2022-12-28T04:30:53;7.52;87.12
35085;SHT85;21267;51.032;6.998;2022-12-28T04:37:09;7.59;87.17
35085;SHT85;21267;51.032;6.998;2022-12-28T04:42:48;7.61;87.26
35085;SHT85;21267;51.032;6.998;2022-12-28T04:49:47;7.73;86.95
35085;SHT85;21267;51.032;6.998;2022-12-28T05:19:02;8.37;85.28
35085;SHT85;21267;51.032;6.998;2022-12-28T05:32:44;8.54;84.96
35085;SHT85;21267;51.032;6.998;2022-12-28T06:00:06;9.01;83.85
35085;SHT85;21267;51.032;6.998;2022-12-28T06:02:58;9.16;83.38
35085;SHT85;21267;51.032;6.998;2022-12-28T08:27:06;9.70;82.42
35085;SHT85;21267;51.032;6.998;2022-12-28T08:44:27;9.81;82.23
35085;SHT85;21267;51.032;6.998;2022-12-28T08:47:31;9.82;82.23
35085;SHT85;21267;51.032;6.998;2022-12-28T08:49:58;9.88;82.11
35085;SHT85;21267;51.032;6.998;2022-12-28T08:52:25;9.88;82.33
35085;SHT85;21267;51.032;6.998;2022-12-28T08:54:51;9.88;82.20
35085;SHT85;21267;51.032;6.998;2022-12-28T08:57:18;9.87;82.27
35085;SHT85;21267;51.032;6.998;2022-12-28T08:59:45;9.88;82.37
35085;SHT85;21267;51.032;6.998;2022-12-28T09:02:12;9.91;82.36
35085;SHT85;21267;51.032;6.998;2022-12-28T09:04:39;9.90;82.40
35085;SHT85;21267;51.032;6.998;2022-12-28T09:07:06;9.91;82.64
35085;SHT85;21267;51.032;6.998;2022-12-28T09:09:33;9.84;83.02
35085;SHT85;21267;51.032;6.998;2022-12-28T09:12:00;9.84;83.25
35085;SHT85;21267;51.032;6.998;2022-12-28T09:14:27;9.84;83.37
35085;SHT85;21267;51.032;6.998;2022-12-28T09:16:53;9.88;83.12
35085;SHT85;21267;51.032;6.998;2022-12-28T09:19:20;9.85;83.42
35085;SHT85;21267;51.032;6.998;2022-12-28T09:21:47;9.91;83.12
35085;SHT85;21267;51.032;6.998;2022-12-28T09:24:17;9.92;83.04
35085;SHT85;21267;51.032;6.998;2022-12-28T09:26:44;9.91;83.10
35085;SHT85;21267;51.032;6.998;2022-12-28T09:29:12;9.98;82.93
35085;SHT85;21267;51.032;6.998;2022-12-28T09:31:39;9.97;82.99
35085;SHT85;21267;51.032;6.998;2022-12-28T09:34:08;9.98;82.76
35085;SHT85;21267;51.032;6.998;2022-12-28T09:36:56;10.02;82.78
35085;SHT85;21267;51.032;6.998;2022-12-28T09:39:23;10.01;82.56
35085;SHT85;21267;51.032;6.998;2022-12-28T09:47:40;10.09;82.47
35085;SHT85;21267;51.032;6.998;2022-12-28T09:55:47;10.19;81.71
35085;SHT85;21267;51.032;6.998;2022-12-28T09:58:16;10.23;81.74
35085;SHT85;21267;51.032;6.998;2022-12-28T10:00:52;10.26;81.59
35085;SHT85;21267;51.032;6.998;2022-12-28T10:05:52;10.29;81.38
35085;SHT85;21267;51.032;6.998;2022-12-28T10:08:21;10.30;81.39
35085;SHT85;21267;51.032;6.998;2022-12-28T10:10:50;10.30;81.39
35085;SHT85;21267;51.032;6.998;2022-12-28T10:13:22;10.38;81.02
35085;SHT85;21267;51.032;6.998;2022-12-28T10:16:18;10.34;81.38
35085;SHT85;21267;51.032;6.998;2022-12-28T10:18:46;10.33;81.14
35085;SHT85;21267;51.032;6.998;2022-12-28T10:21:15;10.39;81.01
35085;SHT85;21267;51.032;6.998;2022-12-28T10:23:45;10.38;80.86
35085;SHT85;21267;51.032;6.998;2022-12-28T10:26:33;10.32;81.23
35085;SHT85;21267;51.032;6.998;2022-12-28T10:29:00;10.32;81.12
35085;SHT85;21267;51.032;6.998;2022-12-28T10:34:01;10.36;81.09
35085;SHT85;21267;51.032;6.998;2022-12-28T10:36:37;10.36;81.12
35085;SHT85;21267;51.032;6.998;2022-12-28T10:39:03;10.34;81.27
35085;SHT85;21267;51.032;6.998;2022-12-28T10:41:37;10.38;81.13
35085;SHT85;21267;51.032;6.998;2022-12-28T10:44:35;10.39;81.19
35085;SHT85;21267;51.032;6.998;2022-12-28T10:47:15;10.39;81.35
35085;SHT85;21267;51.032;6.998;2022-12-28T10:49:47;10.43;81.32
35085;SHT85;21267;51.032;6.998;2022-12-28T10:52:35;10.46;81.08
35085;SHT85;21267;51.032;6.998;2022-12-28T10:55:02;10.49;81.14
35085;SHT85;21267;51.032;6.998;2022-12-28T10:57:33;10.46;81.24
35085;SHT85;21267;51.032;6.998;2022-12-28T11:00:14;10.53;81.01
35085;SHT85;21267;51.032;6.998;2022-12-28T11:02:45;10.56;81.08
35085;SHT85;21267;51.032;6.998;2022-12-28T11:05:23;10.57;81.01
35085;SHT85;21267;51.032;6.998;2022-12-28T11:08:04;10.59;81.00
35085;SHT85;21267;51.032;6.998;2022-12-28T11:10:31;10.57;80.91
35085;SHT85;21267;51.032;6.998;2022-12-28T11:13:00;10.59;81.07
35085;SHT85;21267;51.032;6.998;2022-12-28T11:15:31;10.56;81.07
35085;SHT85;21267;51.032;6.998;2022-12-28T11:18:00;10.57;81.08
35085;SHT85;21267;51.032;6.998;2022-12-28T11:20:34;10.59;81.22
35085;SHT85;21267;51.032;6.998;2022-12-28T11:23:04;10.61;80.94
35085;SHT85;21267;51.032;6.998;2022-12-28T11:25:33;10.57;81.17
35085;SHT85;21267;51.032;6.998;2022-12-28T11:28:05;10.55;81.41
35085;SHT85;21267;51.032;6.998;2022-12-28T11:30:32;10.56;81.32
35085;SHT85;21267;51.032;6.998;2022-12-28T11:33:00;10.57;81.30
35085;SHT85;21267;51.032;6.998;2022-12-28T11:35:30;10.55;81.34
35085;SHT85;21267;51.032;6.998;2022-12-28T11:38:01;10.59;81.30
35085;SHT85;21267;51.032;6.998;2022-12-28T11:43:46;10.59;81.12
35085;SHT85;21267;51.032;6.998;2022-12-28T11:51:23;10.63;81.16
35085;SHT85;21267;51.032;6.998;2022-12-28T11:53:54;10.60;80.96
35085;SHT85;21267;51.032;6.998;2022-12-28T11:59:25;10.60;80.55
35085;SHT85;21267;51.032;6.998;2022-12-28T12:01:56;10.59;80.42
35085;SHT85;21267;51.032;6.998;2022-12-28T12:04:30;10.56;80.95
35085;SHT85;21267;51.032;6.998;2022-12-28T12:12:12;10.57;80.18
35085;SHT85;21267;51.032;6.998;2022-12-28T12:15:15;10.59;80.10
35085;SHT85;21267;51.032;6.998;2022-12-28T12:17:47;10.60;80.09
35085;SHT85;21267;51.032;6.998;2022-12-28T12:23:04;10.56;79.92
35085;SHT85;21267;51.032;6.998;2022-12-28T12:25:36;10.60;79.55
35085;SHT85;21267;51.032;6.998;2022-12-28T12:28:19;10.60;79.39
35085;SHT85;21267;51.032;6.998;2022-12-28T12:30:50;10.57;79.49
35085;SHT85;21267;51.032;6.998;2022-12-28T12:33:23;10.60;79.65
35085;SHT85;21267;51.032;6.998;2022-12-28T12:36:08;10.53;79.72
35085;SHT85;21267;51.032;6.998;2022-12-28T12:39:15;10.45;80.46
35085;SHT85;21267;51.032;6.998;2022-12-28T12:44:29;10.49;79.95
35085;SHT85;21267;51.032;6.998;2022-12-28T12:47:27;10.50;79.73
35085;SHT85;21267;51.032;6.998;2022-12-28T12:50:17;10.52;79.58
35085;SHT85;21267;51.032;6.998;2022-12-28T12:52:52;10.56;79.25
35085;SHT85;21267;51.032;6.998;2022-12-28T12:57:51;10.52;79.61
35085;SHT85;21267;51.032;6.998;2022-12-28T13:00:20;10.40;80.30
35085;SHT85;21267;51.032;6.998;2022-12-28T13:05:37;10.08;82.01
35085;SHT85;21267;51.032;6.998;2022-12-28T13:08:19;10.09;82.24
35085;SHT85;21267;51.032;6.998;2022-12-28T13:10:46;10.13;81.93
35085;SHT85;21267;51.032;6.998;2022-12-28T13:13:22;10.11;82.12
35085;SHT85;21267;51.032;6.998;2022-12-28T13:15:51;10.13;81.77
35085;SHT85;21267;51.032;6.998;2022-12-28T13:18:18;10.16;81.50
35085;SHT85;21267;51.032;6.998;2022-12-28T13:21:06;10.15;81.33
35085;SHT85;21267;51.032;6.998;2022-12-28T13:23:43;10.18;80.69
35085;SHT85;21267;51.032;6.998;2022-12-28T13:26:11;10.21;80.19
35085;SHT85;21267;51.032;6.998;2022-12-28T13:28:46;10.28;79.97
35085;SHT85;21267;51.032;6.998;2022-12-28T13:31:22;10.30;79.50
35085;SHT85;21267;51.032;6.998;2022-12-28T13:33:59;10.36;79.59
35085;SHT85;21267;51.032;6.998;2022-12-28T13:36:26;10.45;78.77
35085;SHT85;21267;51.032;6.998;2022-12-28T13:39:11;10.49;78.38
35085;SHT85;21267;51.032;6.998;2022-12-28T13:41:47;10.49;78.18
35085;SHT85;21267;51.032;6.998;2022-12-28T13:44:20;10.39;79.16
35085;SHT85;21267;51.032;6.998;2022-12-28T13:46:57;10.32;79.75
35085;SHT85;21267;51.032;6.998;2022-12-28T13:49:26;10.30;79.76
35085;SHT85;21267;51.032;6.998;2022-12-28T13:51:54;10.33;79.70
35085;SHT85;21267;51.032;6.998;2022-12-28T13:54:22;10.29;80.09
35085;SHT85;21267;51.032;6.998;2022-12-28T13:56:52;10.23;80.07
35085;SHT85;21267;51.032;6.998;2022-12-28T13:59:40;10.22;80.15
35085;SHT85;21267;51.032;6.998;2022-12-28T14:02:12;10.21;80.19
35085;SHT85;21267;51.032;6.998;2022-12-28T14:04:40;10.28;79.68
35085;SHT85;21267;51.032;6.998;2022-12-28T14:07:18;10.32;79.06
35085;SHT85;21267;51.032;6.998;2022-12-28T14:09:46;10.30;79.28
35085;SHT85;21267;51.032;6.998;2022-12-28T14:12:13;10.43;78.42
35085;SHT85;21267;51.032;6.998;2022-12-28T14:14:41;10.45;78.39
35085;SHT85;21267;51.032;6.998;2022-12-28T14:17:08;10.49;78.10
35085;SHT85;21267;51.032;6.998;2022-12-28T14:19:35;10.59;77.26
35085;SHT85;21267;51.032;6.998;2022-12-28T14:22:23;10.63;77.15
35085;SHT85;21267;51.032;6.998;2022-12-28T14:25:17;10.69;76.79
35085;SHT85;21267;51.032;6.998;2022-12-28T14:27:59;10.64;76.85
35085;SHT85;21267;51.032;6.998;2022-12-28T14:30:32;10.64;76.84
35085;SHT85;21267;51.032;6.998;2022-12-28T14:33:04;10.64;76.74
35085;SHT85;21267;51.032;6.998;2022-12-28T14:35:55;10.69;76.55
35085;SHT85;21267;51.032;6.998;2022-12-28T14:38:27;10.66;76.19
35085;SHT85;21267;51.032;6.998;2022-12-28T14:40:59;10.69;76.32
35085;SHT85;21267;51.032;6.998;2022-12-28T14:43:31;10.63;76.67
35085;SHT85;21267;51.032;6.998;2022-12-28T14:48:53;10.63;76.61
35085;SHT85;21267;51.032;6.998;2022-12-28T14:54:16;10.64;76.39
35085;SHT85;21267;51.032;6.998;2022-12-28T14:57:34;10.71;75.78
35085;SHT85;21267;51.032;6.998;2022-12-28T14:59:38;10.67;75.91
35085;SHT85;21267;51.032;6.998;2022-12-28T15:05:00;10.73;75.61
35085;SHT85;21267;51.032;6.998;2022-12-28T15:07:27;10.71;75.64
35085;SHT85;21267;51.032;6.998;2022-12-28T15:09:56;10.73;75.62
35085;SHT85;21267;51.032;6.998;2022-12-28T15:12:22;10.64;75.76
35085;SHT85;21267;51.032;6.998;2022-12-28T15:14:49;10.71;75.84
35085;SHT85;21267;51.032;6.998;2022-12-28T15:17:16;10.70;75.53
35085;SHT85;21267;51.032;6.998;2022-12-28T15:19:44;10.67;75.66
35085;SHT85;21267;51.032;6.998;2022-12-28T15:22:11;10.70;75.51
35085;SHT85;21267;51.032;6.998;2022-12-28T15:24:38;10.67;75.60
35085;SHT85;21267;51.032;6.998;2022-12-28T15:27:07;10.66;75.61
35085;SHT85;21267;51.032;6.998;2022-12-28T15:29:33;10.61;75.81
35085;SHT85;21267;51.032;6.998;2022-12-28T15:32:20;10.61;76.08
35085;SHT85;21267;51.032;6.998;2022-12-28T15:34:47;10.57;76.24
35085;SHT85;21267;51.032;6.998;2022-12-28T15:37:13;10.60;76.02
35085;SHT85;21267;51.032;6.998;2022-12-28T15:39:40;10.61;75.96
35085;SHT85;21267;51.032;6.998;2022-12-28T15:42:06;10.64;76.03
35085;SHT85;21267;51.032;6.998;2022-12-28T15:44:33;10.70;75.79
35085;SHT85;21267;51.032;6.998;2022-12-28T15:47:00;10.70;75.57
35085;SHT85;21267;51.032;6.998;2022-12-28T15:49:27;10.76;75.29
35085;SHT85;21267;51.032;6.998;2022-12-28T15:51:53;10.74;75.56
35085;SHT85;21267;51.032;6.998;2022-12-28T15:54:20;10.69;75.56
35085;SHT85;21267;51.032;6.998;2022-12-28T15:56:51;10.67;75.73
35085;SHT85;21267;51.032;6.998;2022-12-28T15:59:18;10.69;75.74
35085;SHT85;21267;51.032;6.998;2022-12-28T16:01:45;10.73;75.42
35085;SHT85;21267;51.032;6.998;2022-12-28T16:04:13;10.71;75.10
35085;SHT85;21267;51.032;6.998;2022-12-28T16:06:40;10.77;74.81
35085;SHT85;21267;51.032;6.998;2022-12-28T16:09:11;10.84;74.58
35085;SHT85;21267;51.032;6.998;2022-12-28T16:11:39;10.85;74.75
35085;SHT85;21267;51.032;6.998;2022-12-28T16:14:07;10.87;74.27
35085;SHT85;21267;51.032;6.998;2022-12-28T16:16:38;10.80;74.42
35085;SHT85;21267;51.032;6.998;2022-12-28T16:19:06;10.80;74.33
35085;SHT85;21267;51.032;6.998;2022-12-28T16:21:33;10.84;74.02
35085;SHT85;21267;51.032;6.998;2022-12-28T16:23:59;10.91;73.57
35085;SHT85;21267;51.032;6.998;2022-12-28T16:26:27;10.91;73.17
35085;SHT85;21267;51.032;6.998;2022-12-28T16:28:54;10.91;73.24
35085;SHT85;21267;51.032;6.998;2022-12-28T16:31:26;10.92;73.19
35085;SHT85;21267;51.032;6.998;2022-12-28T16:33:59;10.88;73.16
35085;SHT85;21267;51.032;6.998;2022-12-28T16:36:26;10.87;73.28
35085;SHT85;21267;51.032;6.998;2022-12-28T16:38:53;10.81;73.55
35085;SHT85;21267;51.032;6.998;2022-12-28T16:41:20;10.87;73.24
35085;SHT85;21267;51.032;6.998;2022-12-28T16:43:48;10.84;73.38
35085;SHT85;21267;51.032;6.998;2022-12-28T16:46:15;10.80;73.61
35085;SHT85;21267;51.032;6.998;2022-12-28T16:48:43;10.91;73.00
35085;SHT85;21267;51.032;6.998;2022-12-28T16:51:10;10.91;73.17
35085;SHT85;21267;51.032;6.998;2022-12-28T16:53:37;10.92;72.91
35085;SHT85;21267;51.032;6.998;2022-12-28T16:56:05;10.94;72.73
35085;SHT85;21267;51.032;6.998;2022-12-28T16:58:32;10.97;72.73
35085;SHT85;21267;51.032;6.998;2022-12-28T17:01:07;10.94;72.79
35085;SHT85;21267;51.032;6.998;2022-12-28T17:03:36;10.90;73.07
35085;SHT85;21267;51.032;6.998;2022-12-28T17:06:04;10.92;72.86
35085;SHT85;21267;51.032;6.998;2022-12-28T17:10:59;10.88;73.04
35085;SHT85;21267;51.032;6.998;2022-12-28T17:13:26;10.94;73.16
35085;SHT85;21267;51.032;6.998;2022-12-28T17:15:53;10.79;74.27
35085;SHT85;21267;51.032;6.998;2022-12-28T17:18:20;10.66;75.65
35085;SHT85;21267;51.032;6.998;2022-12-28T17:20:47;10.50;76.53
35085;SHT85;21267;51.032;6.998;2022-12-28T17:23:13;10.38;77.65
35085;SHT85;21267;51.032;6.998;2022-12-28T17:25:40;10.12;79.26
35085;SHT85;21267;51.032;6.998;2022-12-28T17:28:07;10.02;80.19
35085;SHT85;21267;51.032;6.998;2022-12-28T17:30:33;9.98;80.40
35085;SHT85;21267;51.032;6.998;2022-12-28T17:33:00;9.87;81.15
35085;SHT85;21267;51.032;6.998;2022-12-28T17:35:27;9.85;81.33
35085;SHT85;21267;51.032;6.998;2022-12-28T17:37:54;9.73;82.30
35085;SHT85;21267;51.032;6.998;2022-12-28T17:40:21;9.70;82.29
35085;SHT85;21267;51.032;6.998;2022-12-28T17:42:47;9.53;83.30
35085;SHT85;21267;51.032;6.998;2022-12-28T17:45:14;9.46;84.08
35085;SHT85;21267;51.032;6.998;2022-12-28T17:47:41;9.48;84.30
35085;SHT85;21267;51.032;6.998;2022-12-28T17:50:08;9.41;84.49
35085;SHT85;21267;51.032;6.998;2022-12-28T17:52:34;9.36;85.36
35085;SHT85;21267;51.032;6.998;2022-12-28T17:55:02;9.23;86.26
35085;SHT85;21267;51.032;6.998;2022-12-28T17:57:29;9.19;86.47
35085;SHT85;21267;51.032;6.998;2022-12-28T18:00:04;9.22;86.79
35085;SHT85;21267;51.032;6.998;2022-12-28T18:02:31;9.20;87.19
35085;SHT85;21267;51.032;6.998;2022-12-28T18:04:58;9.13;87.41
35085;SHT85;21267;51.032;6.998;2022-12-28T18:07:25;9.18;87.38
35085;SHT85;21267;51.032;6.998;2022-12-28T18:09:53;9.06;88.08
35085;SHT85;21267;51.032;6.998;2022-12-28T18:12:20;9.06;88.72
35085;SHT85;21267;51.032;6.998;2022-12-28T18:14:46;9.11;88.71
35085;SHT85;21267;51.032;6.998;2022-12-28T18:17:13;9.01;89.41
35085;SHT85;21267;51.032;6.998;2022-12-28T18:19:43;9.09;88.67
35085;SHT85;21267;51.032;6.998;2022-12-28T18:22:09;9.12;89.08
35085;SHT85;21267;51.032;6.998;2022-12-28T18:24:36;9.16;88.52
35085;SHT85;21267;51.032;6.998;2022-12-28T18:27:02;9.06;89.37
35085;SHT85;21267;51.032;6.998;2022-12-28T18:29:29;9.06;89.66
35085;SHT85;21267;51.032;6.998;2022-12-28T18:31:56;9.06;89.37
35085;SHT85;21267;51.032;6.998;2022-12-28T18:34:23;8.98;90.18
35085;SHT85;21267;51.032;6.998;2022-12-28T18:36:50;9.03;89.79
35085;SHT85;21267;51.032;6.998;2022-12-28T18:39:16;9.06;89.89
35085;SHT85;21267;51.032;6.998;2022-12-28T18:41:43;9.05;89.83
35085;SHT85;21267;51.032;6.998;2022-12-28T18:44:10;9.01;90.69
35085;SHT85;21267;51.032;6.998;2022-12-28T18:46:37;8.93;90.92
35085;SHT85;21267;51.032;6.998;2022-12-28T18:49:04;8.92;91.27
35085;SHT85;21267;51.032;6.998;2022-12-28T18:51:30;8.91;91.36
35085;SHT85;21267;51.032;6.998;2022-12-28T18:53:57;8.91;91.53
35085;SHT85;21267;51.032;6.998;2022-12-28T18:58:40;8.82;92.30
35085;SHT85;21267;51.032;6.998;2022-12-28T19:01:11;8.79;92.71
35085;SHT85;21267;51.032;6.998;2022-12-28T19:03:56;8.88;92.07
35085;SHT85;21267;51.032;6.998;2022-12-28T19:06:24;8.91;92.54
35085;SHT85;21267;51.032;6.998;2022-12-28T19:08:59;8.85;92.47
35085;SHT85;21267;51.032;6.998;2022-12-28T19:11:29;8.88;92.38
35085;SHT85;21267;51.032;6.998;2022-12-28T19:14:11;8.91;92.76
35085;SHT85;21267;51.032;6.998;2022-12-28T19:16:38;8.91;92.83
35085;SHT85;21267;51.032;6.998;2022-12-28T19:19:05;8.86;93.26
35085;SHT85;21267;51.032;6.998;2022-12-28T19:24:04;8.85;93.26
35085;SHT85;21267;51.032;6.998;2022-12-28T19:26:33;8.82;93.66
35085;SHT85;21267;51.032;6.998;2022-12-28T19:29:01;8.88;93.22
35085;SHT85;21267;51.032;6.998;2022-12-28T19:31:29;8.89;93.34
35085;SHT85;21267;51.032;6.998;2022-12-28T19:33:56;8.86;93.69
35085;SHT85;21267;51.032;6.998;2022-12-28T19:36:22;8.83;94.01
35085;SHT85;21267;51.032;6.998;2022-12-28T19:38:51;8.92;93.85
35085;SHT85;21267;51.032;6.998;2022-12-28T19:41:19;8.91;93.75
35085;SHT85;21267;51.032;6.998;2022-12-28T19:43:46;8.96;93.41
35085;SHT85;21267;51.032;6.998;2022-12-28T19:46:15;8.93;93.84
35085;SHT85;21267;51.032;6.998;2022-12-28T19:48:53;8.89;93.95
35085;SHT85;21267;51.032;6.998;2022-12-28T19:51:20;9.01;93.65
35085;SHT85;21267;51.032;6.998;2022-12-28T19:53:55;9.06;93.26
35085;SHT85;21267;51.032;6.998;2022-12-28T19:56:22;9.03;93.46
35085;SHT85;21267;51.032;6.998;2022-12-28T19:58:49;9.03;93.54
35085;SHT85;21267;51.032;6.998;2022-12-28T20:01:18;9.05;93.44
35085;SHT85;21267;51.032;6.998;2022-12-28T20:03:45;9.08;92.99
35085;SHT85;21267;51.032;6.998;2022-12-28T20:06:18;9.16;92.99
35085;SHT85;21267;51.032;6.998;2022-12-28T20:08:48;9.08;93.42
35085;SHT85;21267;51.032;6.998;2022-12-28T20:11:17;9.05;93.67
35085;SHT85;21267;51.032;6.998;2022-12-28T20:13:50;9.06;93.63
35085;SHT85;21267;51.032;6.998;2022-12-28T20:16:17;9.09;93.76
35085;SHT85;21267;51.032;6.998;2022-12-28T20:18:45;9.09;93.72
35085;SHT85;21267;51.032;6.998;2022-12-28T20:21:11;9.19;93.24
35085;SHT85;21267;51.032;6.998;2022-12-28T20:23:48;9.23;93.14
35085;SHT85;21267;51.032;6.998;2022-12-28T20:26:15;9.23;93.22
35085;SHT85;21267;51.032;6.998;2022-12-28T20:28:41;9.34;92.54
35085;SHT85;21267;51.032;6.998;2022-12-28T20:31:11;9.36;92.50
35085;SHT85;21267;51.032;6.998;2022-12-28T20:33:39;9.48;91.86
35085;SHT85;21267;51.032;6.998;2022-12-28T20:36:15;9.55;91.53
35085;SHT85;21267;51.032;6.998;2022-12-28T20:38:42;9.65;90.88
35085;SHT85;21267;51.032;6.998;2022-12-28T20:41:17;9.77;90.04
35085;SHT85;21267;51.032;6.998;2022-12-28T20:44:05;10.21;88.65
35085;SHT85;21267;51.032;6.998;2022-12-28T20:46:33;10.38;87.65
35085;SHT85;21267;51.032;6.998;2022-12-28T20:48:59;10.46;86.90
35085;SHT85;21267;51.032;6.998;2022-12-28T20:51:26;10.52;87.05
35085;SHT85;21267;51.032;6.998;2022-12-28T20:53:53;10.61;86.30
35085;SHT85;21267;51.032;6.998;2022-12-28T20:56:19;10.67;86.20
35085;SHT85;21267;51.032;6.998;2022-12-28T20:58:47;10.67;86.39
35085;SHT85;21267;51.032;6.998;2022-12-28T21:01:15;10.76;86.06
35085;SHT85;21267;51.032;6.998;2022-12-28T21:03:42;10.70;86.30
35085;SHT85;21267;51.032;6.998;2022-12-28T21:06:10;10.81;86.06
35085;SHT85;21267;51.032;6.998;2022-12-28T21:08:37;10.76;86.41
35085;SHT85;21267;51.032;6.998;2022-12-28T21:11:04;10.74;86.51
35085;SHT85;21267;51.032;6.998;2022-12-28T21:13:31;10.71;86.59
35085;SHT85;21267;51.032;6.998;2022-12-28T21:15:58;10.87;85.65
35085;SHT85;21267;51.032;6.998;2022-12-28T21:18:27;10.84;85.84
35085;SHT85;21267;51.032;6.998;2022-12-28T21:20:54;10.84;85.77
35085;SHT85;21267;51.032;6.998;2022-12-28T21:23:22;10.83;85.72
35085;SHT85;21267;51.032;6.998;2022-12-28T21:25:49;10.88;85.60
35085;SHT85;21267;51.032;6.998;2022-12-28T21:28:15;10.84;85.65
35085;SHT85;21267;51.032;6.998;2022-12-28T21:30:42;10.87;85.71
35085;SHT85;21267;51.032;6.998;2022-12-28T21:33:08;10.88;85.61
35085;SHT85;21267;51.032;6.998;2022-12-28T21:35:35;10.85;85.81
35085;SHT85;21267;51.032;6.998;2022-12-28T21:38:03;10.92;85.64
35085;SHT85;21267;51.032;6.998;2022-12-28T21:40:30;10.97;85.31
35085;SHT85;21267;51.032;6.998;2022-12-28T21:42:56;10.91;85.77
35085;SHT85;21267;51.032;6.998;2022-12-28T21:45:23;10.92;85.57
35085;SHT85;21267;51.032;6.998;2022-12-28T21:47:49;10.83;86.42
35085;SHT85;21267;51.032;6.998;2022-12-28T21:50:16;10.70;86.67
35085;SHT85;21267;51.032;6.998;2022-12-28T21:52:42;10.71;86.68
35085;SHT85;21267;51.032;6.998;2022-12-28T21:55:09;10.70;86.94
35085;SHT85;21267;51.032;6.998;2022-12-28T21:57:54;10.73;86.72
35085;SHT85;21267;51.032;6.998;2022-12-28T22:00:21;10.74;86.81
35085;SHT85;21267;51.032;6.998;2022-12-28T22:03:06;10.61;87.52
35085;SHT85;21267;51.032;6.998;2022-12-28T22:05:51;10.46;88.27
35085;SHT85;21267;51.032;6.998;2022-12-28T22:08:31;10.50;88.05
35085;SHT85;21267;51.032;6.998;2022-12-28T22:11:17;10.40;88.56
35085;SHT85;21267;51.032;6.998;2022-12-28T22:14:04;10.40;88.70
35085;SHT85;21267;51.032;6.998;2022-12-28T22:16:32;10.43;88.46
35085;SHT85;21267;51.032;6.998;2022-12-28T22:19:00;10.40;88.65
35085;SHT85;21267;51.032;6.998;2022-12-28T22:21:30;10.34;88.98
35085;SHT85;21267;51.032;6.998;2022-12-28T22:23:56;10.28;89.23
35085;SHT85;21267;51.032;6.998;2022-12-28T22:26:23;10.32;89.26
35085;SHT85;21267;51.032;6.998;2022-12-28T22:28:49;10.28;89.74
35085;SHT85;21267;51.032;6.998;2022-12-28T22:31:16;10.18;90.36
35085;SHT85;21267;51.032;6.998;2022-12-28T22:33:43;10.13;90.78
35085;SHT85;21267;51.032;6.998;2022-12-28T22:36:14;10.08;91.29
35085;SHT85;21267;51.032;6.998;2022-12-28T22:38:41;9.99;92.18
35085;SHT85;21267;51.032;6.998;2022-12-28T22:41:08;9.92;92.62
35085;SHT85;21267;51.032;6.998;2022-12-28T22:43:35;9.81;93.34
35085;SHT85;21267;51.032;6.998;2022-12-28T22:46:08;9.81;93.43
35085;SHT85;21267;51.032;6.998;2022-12-28T22:48:36;9.82;93.64
35085;SHT85;21267;51.032;6.998;2022-12-28T22:51:08;9.82;93.72
35085;SHT85;21267;51.032;6.998;2022-12-28T22:53:35;9.88;93.75
35085;SHT85;21267;51.032;6.998;2022-12-28T22:56:05;9.88;93.68
35085;SHT85;21267;51.032;6.998;2022-12-28T22:58:32;9.88;93.73
35085;SHT85;21267;51.032;6.998;2022-12-28T23:01:10;9.82;93.94
35085;SHT85;21267;51.032;6.998;2022-12-28T23:03:39;9.81;94.23
35085;SHT85;21267;51.032;6.998;2022-12-28T23:06:07;9.77;94.10
35085;SHT85;21267;51.032;6.998;2022-12-28T23:08:34;9.77;94.24
35085;SHT85;21267;51.032;6.998;2022-12-28T23:11:03;9.75;94.30
35085;SHT85;21267;51.032;6.998;2022-12-28T23:13:33;9.73;94.18
35085;SHT85;21267;51.032;6.998;2022-12-28T23:16:02;9.70;94.34
35085;SHT85;21267;51.032;6.998;2022-12-28T23:18:30;9.70;94.38
35085;SHT85;21267;51.032;6.998;2022-12-28T23:21:22;9.70;94.30
35085;SHT85;21267;51.032;6.998;2022-12-28T23:24:10;9.74;94.06
35085;SHT85;21267;51.032;6.998;2022-12-28T23:26:55;9.78;93.81
35085;SHT85;21267;51.032;6.998;2022-12-28T23:29:40;9.81;93.62
35085;SHT85;21267;51.032;6.998;2022-12-28T23:32:09;9.84;93.32
35085;SHT85;21267;51.032;6.998;2022-12-28T23:34:36;9.91;93.21
35085;SHT85;21267;51.032;6.998;2022-12-28T23:37:02;9.97;92.69
35085;SHT85;21267;51.032;6.998;2022-12-28T23:39:29;9.98;92.86
35085;SHT85;21267;51.032;6.998;2022-12-28T23:41:56;10.05;92.42
35085;SHT85;21267;51.032;6.998;2022-12-28T23:44:24;10.05;92.40
35085;SHT85;21267;51.032;6.998;2022-12-28T23:46:52;10.05;92.44
35085;SHT85;21267;51.032;6.998;2022-12-28T23:49:24;10.05;92.61
35085;SHT85;21267;51.032;6.998;2022-12-28T23:51:50;10.03;92.91
35085;SHT85;21267;51.032;6.998;2022-12-28T23:54:18;10.03;92.89
35085;SHT85;21267;51.032;6.998;2022-12-28T23:56:45;9.99;93.26
35085;SHT85;21267;51.032;6.998;2022-12-28T23:59:16;9.95;93.75
